Time;durP1;ratioP1;P1;durP2;ratioP2;P2;SDS_P1;SDS_P2;PMS_P1;PMS_P2;Temp;Humidity;BMP_temperature;BMP_pressure;BME280_temperature;BME280_humidity;BME280_pressure;Samples;Min_cycle;Max_cycle;Signal;HPM_P1;HPM_P2
2021/12/12 00:00:44;;;;;;;67.22;24.63;;;;;;;;;;5030262;28;20033;-86
2021/12/12 00:03:20;;;;;;;57.97;23.13;;;;;;;;;;5030248;28;20485;-86
2021/12/12 00:05:51;;;;;;;99.22;26.67;;;;;;;;;;5030382;28;20199;-86
2021/12/12 00:08:17;;;;;;;51.58;25.17;;;;;;;;;;5012222;28;20057;-86
2021/12/12 00:10:44;;;;;;;70.22;27.42;;;;;;;;;;5012176;28;20060;-86
2021/12/12 00:13:12;;;;;;;72.63;27.77;;;;;;;;;;5030152;28;20026;-86
2021/12/12 00:15:37;;;;;;;75.90;29.70;;;;;;;;;;5012413;28;20060;-86
2021/12/12 00:18:03;;;;;;;91.28;32.20;;;;;;;;;;5030076;28;20066;-86
2021/12/12 00:20:28;;;;;;;58.25;28.80;;;;;;;;;;5029870;28;20068;-86
2021/12/12 00:22:58;;;;;;;58.60;30.17;;;;;;;;;;5011983;28;20044;-86
2021/12/12 00:25:24;;;;;;;95.45;33.95;;;;;;;;;;5030064;28;20021;-86
2021/12/12 00:27:49;;;;;;;55.95;28.30;;;;;;;;;;5012035;28;20513;-86
2021/12/12 00:30:14;;;;;;;154.27;41.55;;;;;;;;;;5029869;28;20034;-86
2021/12/12 00:32:40;;;;;;;66.65;33.15;;;;;;;;;;5012062;28;20022;-86
2021/12/12 00:35:10;;;;;;;75.75;31.83;;;;;;;;;;5032054;28;20021;-86
2021/12/12 00:37:36;;;;;;;110.60;37.03;;;;;;;;;;5029895;28;20044;-86
2021/12/12 00:40:16;;;;;;;145.23;41.90;;;;;;;;;;5011622;28;20029;-87
2021/12/12 00:42:41;;;;;;;97.90;36.55;;;;;;;;;;5011890;28;20118;-86
2021/12/12 00:45:11;;;;;;;97.38;35.30;;;;;;;;;;5029597;28;20045;-86
2021/12/12 00:47:37;;;;;;;99.63;37.42;;;;;;;;;;5029809;28;20033;-86
2021/12/12 00:50:05;;;;;;;98.75;37.72;;;;;;;;;;5029790;28;20026;-86
2021/12/12 00:52:30;;;;;;;128.13;43.20;;;;;;;;;;5029796;28;20025;-86
2021/12/12 00:54:55;;;;;;;121.07;41.25;;;;;;;;;;5011420;28;20013;-86
2021/12/12 00:57:21;;;;;;;117.35;43.97;;;;;;;;;;5029710;28;20040;-86
2021/12/12 00:59:47;;;;;;;151.40;51.22;;;;;;;;;;5029407;28;20017;-86
2021/12/12 01:02:15;;;;;;;134.95;49.13;;;;;;;;;;5029899;28;20022;-86
2021/12/12 01:04:44;;;;;;;129.95;51.00;;;;;;;;;;5031933;28;20584;-86
2021/12/12 01:07:12;;;;;;;203.60;61.03;;;;;;;;;;5030105;28;20056;-86
2021/12/12 01:09:41;;;;;;;140.18;57.08;;;;;;;;;;5013725;28;20025;-87
2021/12/12 01:12:09;;;;;;;146.10;57.40;;;;;;;;;;5033636;28;20465;-86
2021/12/12 01:14:36;;;;;;;132.20;53.15;;;;;;;;;;5033452;28;20014;-87
2021/12/12 01:17:01;;;;;;;179.50;55.63;;;;;;;;;;5015803;28;20064;-86
2021/12/12 01:19:31;;;;;;;116.25;50.65;;;;;;;;;;5015364;28;20069;-86
2021/12/12 01:21:59;;;;;;;141.90;53.15;;;;;;;;;;5033637;28;20488;-86
2021/12/12 01:24:29;;;;;;;137.85;53.00;;;;;;;;;;5034976;28;20022;-86
2021/12/12 01:26:56;;;;;;;132.33;52.13;;;;;;;;;;5033473;28;20021;-86
2021/12/12 01:29:21;;;;;;;122.80;48.78;;;;;;;;;;5033289;28;20362;-85
2021/12/12 01:31:48;;;;;;;134.57;47.85;;;;;;;;;;5015128;28;20028;-86
2021/12/12 01:34:15;;;;;;;141.20;50.35;;;;;;;;;;5033047;28;20045;-86
2021/12/12 01:36:49;;;;;;;127.00;48.80;;;;;;;;;;5014991;28;20018;-86
2021/12/12 01:39:17;;;;;;;131.43;48.75;;;;;;;;;;5033102;28;20183;-86
2021/12/12 01:42:05;;;;;;;130.82;48.47;;;;;;;;;;5014937;28;20053;-86
2021/12/12 01:44:51;;;;;;;145.70;46.83;;;;;;;;;;4995303;28;20037;-86
2021/12/12 01:47:22;;;;;;;111.68;43.05;;;;;;;;;;5033354;28;20040;-86
2021/12/12 01:49:50;;;;;;;111.20;43.67;;;;;;;;;;5032647;28;20036;-86
2021/12/12 01:52:17;;;;;;;100.60;40.38;;;;;;;;;;5032888;28;20038;-86
2021/12/12 01:54:45;;;;;;;105.00;38.78;;;;;;;;;;5032735;28;20029;-86
2021/12/12 01:57:16;;;;;;;103.65;39.63;;;;;;;;;;5032750;28;20589;-86
2021/12/12 01:59:43;;;;;;;105.93;41.33;;;;;;;;;;5014875;28;20032;-86
2021/12/12 02:02:12;;;;;;;99.22;40.25;;;;;;;;;;5014751;28;20060;-86
2021/12/12 02:04:39;;;;;;;91.72;38.83;;;;;;;;;;5032257;28;20155;-86
2021/12/12 02:07:06;;;;;;;100.78;40.72;;;;;;;;;;5032799;28;20048;-86
2021/12/12 02:09:32;;;;;;;96.45;39.67;;;;;;;;;;5016604;28;20018;-86
2021/12/12 02:11:58;;;;;;;107.35;42.85;;;;;;;;;;5032330;28;20040;-86
2021/12/12 02:14:23;;;;;;;99.85;43.35;;;;;;;;;;5032382;28;20053;-86
2021/12/12 02:16:51;;;;;;;117.72;43.75;;;;;;;;;;5032271;28;20095;-86
2021/12/12 02:19:18;;;;;;;105.07;41.78;;;;;;;;;;5014232;28;20033;-86
2021/12/12 02:22:00;;;;;;;105.55;42.97;;;;;;;;;;5032194;28;20128;-86
2021/12/12 02:35:25;;;;;;;116.95;39.22;;;;;;;;;;5032037;28;20063;-86
2021/12/12 02:37:53;;;;;;;112.70;39.08;;;;;;;;;;5031897;28;20021;-86
2021/12/12 02:40:23;;;;;;;106.70;40.75;;;;;;;;;;5031658;28;20045;-86
2021/12/12 02:42:49;;;;;;;111.47;37.83;;;;;;;;;;5031836;28;20021;-86
2021/12/12 02:45:16;;;;;;;98.88;38.00;;;;;;;;;;5031845;28;20084;-86
2021/12/12 02:47:43;;;;;;;102.35;40.00;;;;;;;;;;5013812;28;20464;-86
2021/12/12 02:50:20;;;;;;;106.88;38.05;;;;;;;;;;5031801;28;20021;-85
2021/12/12 02:52:47;;;;;;;98.35;38.53;;;;;;;;;;5032223;28;20041;-86
2021/12/12 02:55:15;;;;;;;99.25;38.50;;;;;;;;;;5031694;28;20021;-86
2021/12/12 02:57:40;;;;;;;103.53;39.10;;;;;;;;;;5013221;28;20045;-86
2021/12/12 03:00:07;;;;;;;94.28;39.03;;;;;;;;;;5031452;28;20072;-86
2021/12/12 03:02:40;;;;;;;85.50;37.55;;;;;;;;;;5031403;28;20029;-86
2021/12/12 03:05:07;;;;;;;99.93;39.03;;;;;;;;;;5031572;28;20040;-86
2021/12/12 03:07:32;;;;;;;89.38;37.28;;;;;;;;;;5013534;28;20025;-86
2021/12/12 03:09:57;;;;;;;94.97;38.67;;;;;;;;;;5013333;28;20041;-86
2021/12/12 03:12:33;;;;;;;95.03;39.53;;;;;;;;;;5031170;28;20032;-86
2021/12/12 03:15:18;;;;;;;112.60;41.00;;;;;;;;;;5031228;28;20047;-86
2021/12/12 03:17:45;;;;;;;100.25;38.30;;;;;;;;;;5032214;28;20045;-86
2021/12/12 03:20:23;;;;;;;126.13;41.97;;;;;;;;;;5031038;28;20054;-86
2021/12/12 03:22:49;;;;;;;124.05;41.67;;;;;;;;;;5030956;28;20025;-86
2021/12/12 03:25:14;;;;;;;107.78;38.80;;;;;;;;;;5031125;28;20072;-86
2021/12/12 03:27:39;;;;;;;107.10;38.67;;;;;;;;;;5031030;28;20044;-86
2021/12/12 03:30:05;;;;;;;99.25;38.28;;;;;;;;;;5012871;28;20805;-86
2021/12/12 03:32:31;;;;;;;123.20;41.03;;;;;;;;;;5030407;28;20872;-86
2021/12/12 03:34:58;;;;;;;114.82;39.40;;;;;;;;;;5030838;28;20047;-86
2021/12/12 03:37:24;;;;;;;101.18;36.22;;;;;;;;;;5012722;28;20056;-85
2021/12/12 03:39:51;;;;;;;101.30;38.28;;;;;;;;;;5032641;28;20113;-86
2021/12/12 03:42:19;;;;;;;109.90;36.03;;;;;;;;;;5030460;28;20041;-86
2021/12/12 03:44:46;;;;;;;102.10;37.28;;;;;;;;;;5012793;28;20044;-86
2021/12/12 03:47:22;;;;;;;119.95;36.95;;;;;;;;;;5030758;28;20018;-86
2021/12/12 03:49:48;;;;;;;112.25;39.67;;;;;;;;;;5030460;28;20025;-86
2021/12/12 03:52:14;;;;;;;112.80;36.20;;;;;;;;;;5030705;28;20575;-86
2021/12/12 03:54:39;;;;;;;108.03;35.60;;;;;;;;;;5030326;28;20481;-86
2021/12/12 03:57:05;;;;;;;125.57;39.25;;;;;;;;;;5030350;28;20027;-86
2021/12/12 03:59:30;;;;;;;107.35;36.15;;;;;;;;;;5030538;28;20031;-86
2021/12/12 04:01:56;;;;;;;104.07;37.38;;;;;;;;;;5030143;28;20108;-85
2021/12/12 04:04:26;;;;;;;120.05;37.90;;;;;;;;;;5030391;28;20018;-86
2021/12/12 04:06:53;;;;;;;109.32;36.60;;;;;;;;;;5030326;28;20030;-86
2021/12/12 04:09:19;;;;;;;137.07;40.55;;;;;;;;;;5030366;28;20024;-86
2021/12/12 04:11:46;;;;;;;105.70;36.10;;;;;;;;;;5030137;28;20029;-86
2021/12/12 04:14:11;;;;;;;109.50;36.95;;;;;;;;;;5029975;28;20026;-86
2021/12/12 04:16:38;;;;;;;117.43;37.65;;;;;;;;;;5012367;28;20025;-86
2021/12/12 04:19:04;;;;;;;99.00;35.72;;;;;;;;;;5029813;28;20040;-86
2021/12/12 04:21:29;;;;;;;104.68;35.67;;;;;;;;;;5012114;28;20588;-86
2021/12/12 04:23:55;;;;;;;99.20;34.80;;;;;;;;;;5012478;28;20787;-86
2021/12/12 04:26:23;;;;;;;101.90;35.72;;;;;;;;;;5030186;28;20283;-86
2021/12/12 04:28:59;;;;;;;92.07;34.15;;;;;;;;;;5011969;28;20503;-86
2021/12/12 04:31:25;;;;;;;103.18;36.72;;;;;;;;;;5030358;28;20021;-86
2021/12/12 04:33:51;;;;;;;98.75;35.05;;;;;;;;;;5012019;28;20026;-86
2021/12/12 04:36:16;;;;;;;95.07;33.75;;;;;;;;;;5012060;28;20025;-86
2021/12/12 04:38:41;;;;;;;103.28;36.28;;;;;;;;;;5011867;28;20052;-86
2021/12/12 04:41:07;;;;;;;103.22;34.25;;;;;;;;;;5012061;28;20488;-86
2021/12/12 04:43:32;;;;;;;79.93;32.03;;;;;;;;;;5030076;28;20040;-86
2021/12/12 04:46:09;;;;;;;75.07;29.65;;;;;;;;;;5034260;28;21029;-86
2021/12/12 04:51:31;;;;;;;71.95;27.60;;;;;;;;;;5034004;28;20040;-86
2021/12/12 04:54:12;;;;;;;66.57;28.10;;;;;;;;;;5034015;28;20723;-86
2021/12/12 04:56:48;;;;;;;68.28;26.55;;;;;;;;;;5034051;28;20029;-86
2021/12/12 04:59:21;;;;;;;69.63;28.17;;;;;;;;;;5015754;28;20063;-86
2021/12/12 05:02:05;;;;;;;72.32;27.23;;;;;;;;;;5033581;28;20042;-86
2021/12/12 05:04:31;;;;;;;68.07;26.27;;;;;;;;;;5033757;28;20548;-86
2021/12/12 05:07:04;;;;;;;65.83;27.10;;;;;;;;;;5015718;28;20117;-86
2021/12/12 05:09:32;;;;;;;71.75;28.23;;;;;;;;;;5033651;28;20267;-86
2021/12/12 05:12:03;;;;;;;71.35;27.90;;;;;;;;;;5015554;28;20041;-86
2021/12/12 05:14:33;;;;;;;71.55;27.45;;;;;;;;;;5033524;28;20035;-86
2021/12/12 05:17:19;;;;;;;52.80;24.73;;;;;;;;;;5033642;28;20069;-86
2021/12/12 05:19:56;;;;;;;72.95;28.63;;;;;;;;;;5015125;28;20483;-86
2021/12/12 05:22:33;;;;;;;64.55;26.20;;;;;;;;;;5033395;28;20099;-86
2021/12/12 05:24:59;;;;;;;71.00;27.55;;;;;;;;;;5033302;28;20036;-86
2021/12/12 05:27:25;;;;;;;59.13;26.95;;;;;;;;;;5034417;28;20033;-86
2021/12/12 05:30:13;;;;;;;71.97;28.05;;;;;;;;;;5032896;28;20017;-86
2021/12/12 05:32:39;;;;;;;72.53;27.85;;;;;;;;;;5033098;28;20052;-86
2021/12/12 05:35:06;;;;;;;80.50;29.45;;;;;;;;;;5032988;28;20021;-85
2021/12/12 05:37:32;;;;;;;68.85;28.65;;;;;;;;;;5032924;28;20053;-85
2021/12/12 05:40:02;;;;;;;68.47;29.50;;;;;;;;;;5014917;28;20489;-86
2021/12/12 05:42:28;;;;;;;72.80;28.40;;;;;;;;;;5015051;28;20507;-86
2021/12/12 05:44:54;;;;;;;73.57;29.63;;;;;;;;;;5014918;28;20025;-86
2021/12/12 05:47:19;;;;;;;70.80;30.00;;;;;;;;;;5014975;28;20035;-86
2021/12/12 05:49:45;;;;;;;82.93;31.15;;;;;;;;;;5032965;28;20033;-86
2021/12/12 05:52:12;;;;;;;70.03;28.98;;;;;;;;;;5033890;28;20017;-86
2021/12/12 05:54:38;;;;;;;83.53;31.38;;;;;;;;;;5032311;28;20071;-86
2021/12/12 05:57:04;;;;;;;69.40;29.90;;;;;;;;;;5032721;28;20060;-86
2021/12/12 05:59:29;;;;;;;73.85;31.20;;;;;;;;;;5014571;28;20461;-86
2021/12/12 06:01:56;;;;;;;67.93;28.63;;;;;;;;;;5032685;28;20029;-86
2021/12/12 06:04:21;;;;;;;70.78;29.27;;;;;;;;;;5032733;28;20022;-86
2021/12/12 06:06:46;;;;;;;83.28;30.50;;;;;;;;;;5047764;28;20030;-85
2021/12/12 06:09:12;;;;;;;84.30;32.00;;;;;;;;;;5032424;28;20553;-86
2021/12/12 06:11:39;;;;;;;89.13;33.47;;;;;;;;;;5014992;28;20033;-86
2021/12/12 06:14:05;;;;;;;85.18;33.00;;;;;;;;;;5014331;28;20732;-86
2021/12/12 06:16:31;;;;;;;91.18;35.17;;;;;;;;;;5032332;28;20029;-85
2021/12/12 06:19:00;;;;;;;94.97;34.30;;;;;;;;;;5032339;28;20124;-86
2021/12/12 06:21:25;;;;;;;82.43;33.50;;;;;;;;;;5014188;28;20053;-85
2021/12/12 06:23:51;;;;;;;80.03;32.70;;;;;;;;;;5014105;28;20024;-86
2021/12/12 06:26:17;;;;;;;63.30;31.27;;;;;;;;;;5032287;28;20519;-86
2021/12/12 06:28:42;;;;;;;91.53;35.70;;;;;;;;;;5032099;28;20403;-86
2021/12/12 06:31:09;;;;;;;95.88;34.53;;;;;;;;;;5014103;28;20104;-86
2021/12/12 06:33:37;;;;;;;76.25;33.78;;;;;;;;;;5032904;28;20041;-86
2021/12/12 06:36:03;;;;;;;77.72;32.20;;;;;;;;;;5014377;28;20480;-86
2021/12/12 06:38:28;;;;;;;78.45;32.13;;;;;;;;;;5031888;28;20041;-86
2021/12/12 06:40:53;;;;;;;77.77;32.63;;;;;;;;;;5031732;28;20036;-86
2021/12/12 06:43:20;;;;;;;85.28;35.60;;;;;;;;;;5047041;28;20375;-86
2021/12/12 06:45:45;;;;;;;96.43;36.75;;;;;;;;;;5031781;28;20064;-86
2021/12/12 06:48:12;;;;;;;97.50;37.65;;;;;;;;;;5031690;28;20041;-85
2021/12/12 06:50:39;;;;;;;96.05;37.30;;;;;;;;;;5014070;28;20027;-86
2021/12/12 06:53:04;;;;;;;85.93;37.28;;;;;;;;;;5031642;28;20030;-86
2021/12/12 06:55:30;;;;;;;109.70;42.22;;;;;;;;;;5031677;28;20025;-86
2021/12/12 06:57:56;;;;;;;100.57;40.83;;;;;;;;;;5014093;28;20097;-86
2021/12/12 07:00:22;;;;;;;102.00;41.25;;;;;;;;;;5013760;28;20045;-86
2021/12/12 07:02:48;;;;;;;120.82;44.50;;;;;;;;;;5013784;28;20493;-86
2021/12/12 07:05:15;;;;;;;102.43;42.33;;;;;;;;;;5013953;28;20113;-86
2021/12/12 07:07:41;;;;;;;122.43;45.28;;;;;;;;;;5012484;28;20112;-87
2021/12/12 07:10:07;;;;;;;108.63;42.53;;;;;;;;;;5030878;28;20156;-86
2021/12/12 07:12:33;;;;;;;113.07;46.70;;;;;;;;;;5030943;28;20500;-86
2021/12/12 07:14:58;;;;;;;96.20;41.95;;;;;;;;;;5031164;28;20022;-86
2021/12/12 07:17:23;;;;;;;120.82;45.20;;;;;;;;;;5031348;28;20025;-86
2021/12/12 07:19:49;;;;;;;96.53;41.88;;;;;;;;;;5045645;28;20083;-86
2021/12/12 07:22:14;;;;;;;121.93;44.47;;;;;;;;;;5031321;28;20096;-86
2021/12/12 07:24:41;;;;;;;122.60;46.08;;;;;;;;;;5012970;28;20029;-86
2021/12/12 07:27:07;;;;;;;121.95;45.33;;;;;;;;;;5013268;28;20048;-86
2021/12/12 07:29:32;;;;;;;125.93;44.70;;;;;;;;;;5031481;28;20021;-86
2021/12/12 07:31:58;;;;;;;114.93;43.40;;;;;;;;;;5014056;28;20063;-86
2021/12/12 07:34:23;;;;;;;110.30;43.75;;;;;;;;;;5030781;28;20025;-86
2021/12/12 07:36:50;;;;;;;97.75;41.83;;;;;;;;;;5012706;28;20023;-86
2021/12/12 07:39:16;;;;;;;99.47;42.22;;;;;;;;;;5012725;28;20029;-86
2021/12/12 07:41:42;;;;;;;129.13;44.53;;;;;;;;;;5012811;28;20485;-86
2021/12/12 07:44:09;;;;;;;113.53;42.60;;;;;;;;;;5012533;28;20056;-86
2021/12/12 07:46:35;;;;;;;121.50;45.55;;;;;;;;;;5030760;28;20786;-85
2021/12/12 07:49:01;;;;;;;140.95;44.90;;;;;;;;;;5012499;28;20021;-86
2021/12/12 07:51:27;;;;;;;129.88;45.72;;;;;;;;;;5012758;28;20217;-86
2021/12/12 07:53:55;;;;;;;133.00;45.08;;;;;;;;;;5030328;28;20072;-86
2021/12/12 07:56:21;;;;;;;167.15;49.25;;;;;;;;;;5012661;28;20022;-86
2021/12/12 07:58:47;;;;;;;148.10;45.30;;;;;;;;;;5012406;28;20034;-86
2021/12/12 08:01:13;;;;;;;140.50;45.85;;;;;;;;;;5030199;28;20088;-86
2021/12/12 08:03:39;;;;;;;140.95;44.13;;;;;;;;;;5012303;28;20029;-86
2021/12/12 08:06:05;;;;;;;128.65;43.03;;;;;;;;;;5012002;28;20037;-85
2021/12/12 08:08:31;;;;;;;146.45;45.25;;;;;;;;;;5012202;28;20497;-86
2021/12/12 08:10:57;;;;;;;156.80;44.28;;;;;;;;;;5012587;28;20132;-85
2021/12/12 08:13:23;;;;;;;118.05;39.28;;;;;;;;;;5012905;28;20822;-86
2021/12/12 08:15:48;;;;;;;120.72;42.22;;;;;;;;;;5012310;28;20033;-86
2021/12/12 08:18:15;;;;;;;95.10;37.80;;;;;;;;;;5012183;28;20079;-86
2021/12/12 08:20:43;;;;;;;101.43;38.58;;;;;;;;;;5030034;28;20053;-86
2021/12/12 08:23:09;;;;;;;97.35;35.78;;;;;;;;;;5012278;28;20051;-86
2021/12/12 08:25:34;;;;;;;153.35;42.75;;;;;;;;;;5030490;28;20030;-86
2021/12/12 08:28:00;;;;;;;121.90;40.20;;;;;;;;;;5029948;28;20037;-86
2021/12/12 08:30:26;;;;;;;116.00;39.97;;;;;;;;;;5012101;28;20508;-86
2021/12/12 08:32:52;;;;;;;101.57;37.50;;;;;;;;;;5029879;28;20104;-86
2021/12/12 08:35:19;;;;;;;107.70;38.75;;;;;;;;;;5030030;28;20032;-86
2021/12/12 08:37:45;;;;;;;132.52;40.47;;;;;;;;;;5029925;28;20036;-87
2021/12/12 08:40:14;;;;;;;111.45;37.47;;;;;;;;;;5030051;28;20478;-87
2021/12/12 08:42:39;;;;;;;116.05;39.97;;;;;;;;;;5030011;28;20070;-87
2021/12/12 08:45:07;;;;;;;104.97;37.78;;;;;;;;;;5011923;28;20500;-86
2021/12/12 08:47:34;;;;;;;100.07;37.67;;;;;;;;;;5012096;28;20121;-86
2021/12/12 08:49:59;;;;;;;96.80;36.70;;;;;;;;;;5029874;28;20492;-86
2021/12/12 08:52:35;;;;;;;94.05;36.22;;;;;;;;;;5029833;28;20033;-86
2021/12/12 08:55:01;;;;;;;88.57;35.85;;;;;;;;;;5011587;28;20028;-86
2021/12/12 08:57:33;;;;;;;109.75;36.35;;;;;;;;;;5029556;28;20025;-86
2021/12/12 09:00:00;;;;;;;102.15;35.75;;;;;;;;;;5011312;28;20449;-85
2021/12/12 09:02:25;;;;;;;88.65;34.80;;;;;;;;;;5029180;28;20054;-86
2021/12/12 09:04:55;;;;;;;103.32;37.15;;;;;;;;;;5029068;28;20092;-86
2021/12/12 09:07:23;;;;;;;86.82;33.10;;;;;;;;;;5029122;28;20024;-86
2021/12/12 09:10:07;;;;;;;86.10;33.08;;;;;;;;;;5029128;28;20021;-85
2021/12/12 09:12:38;;;;;;;62.95;30.00;;;;;;;;;;5011761;28;20034;-85
2021/12/12 09:15:15;;;;;;;79.37;32.47;;;;;;;;;;5029786;28;20028;-85
2021/12/12 09:18:02;;;;;;;86.90;31.98;;;;;;;;;;5012097;28;20029;-87
2021/12/12 09:20:32;;;;;;;102.93;33.97;;;;;;;;;;5011695;28;20516;-86
2021/12/12 09:23:01;;;;;;;83.53;32.10;;;;;;;;;;5029547;28;20123;-86
2021/12/12 09:25:36;;;;;;;78.65;31.75;;;;;;;;;;5029779;28;20029;-87
2021/12/12 09:28:03;;;;;;;86.80;32.70;;;;;;;;;;5011780;28;20033;-87
2021/12/12 09:30:28;;;;;;;75.30;33.10;;;;;;;;;;5013712;28;20025;-87
2021/12/12 09:32:56;;;;;;;74.45;33.92;;;;;;;;;;5033270;28;20400;-87
2021/12/12 09:35:31;;;;;;;83.28;33.67;;;;;;;;;;5034680;28;20423;-87
2021/12/12 09:38:16;;;;;;;83.00;34.08;;;;;;;;;;5033338;28;20037;-87
2021/12/12 09:41:02;;;;;;;76.93;32.30;;;;;;;;;;5032337;28;20053;-88
2021/12/12 09:43:46;;;;;;;84.72;33.15;;;;;;;;;;5015498;28;20821;-87
2021/12/12 09:46:27;;;;;;;87.60;33.63;;;;;;;;;;5015284;28;20021;-85
2021/12/12 09:52:10;;;;;;;60.97;28.23;;;;;;;;;;5033148;28;20036;-87
2021/12/12 09:54:39;;;;;;;70.75;30.70;;;;;;;;;;5033154;28;20377;-87
2021/12/12 09:57:05;;;;;;;66.30;31.02;;;;;;;;;;5035281;28;20084;-87
2021/12/12 09:59:39;;;;;;;55.53;27.87;;;;;;;;;;5015978;28;20033;-86
2021/12/12 10:02:19;;;;;;;69.35;29.23;;;;;;;;;;5032899;28;20300;-87
2021/12/12 10:05:03;;;;;;;61.15;28.40;;;;;;;;;;5014727;28;20117;-85
2021/12/12 10:07:37;;;;;;;51.47;26.27;;;;;;;;;;5014653;28;20025;-86
2021/12/12 10:10:08;;;;;;;53.33;26.85;;;;;;;;;;5016512;28;20022;-87
2021/12/12 10:12:36;;;;;;;47.53;23.92;;;;;;;;;;5014890;28;20373;-86
2021/12/12 10:15:16;;;;;;;52.55;24.05;;;;;;;;;;5033047;28;20034;-86
2021/12/12 10:18:06;;;;;;;38.10;21.15;;;;;;;;;;5016249;28;20070;-87
2021/12/12 10:20:35;;;;;;;45.42;22.45;;;;;;;;;;5015304;28;20057;-87
2021/12/12 10:23:10;;;;;;;49.70;23.23;;;;;;;;;;5015426;28;20528;-85
2021/12/12 10:25:56;;;;;;;44.15;21.98;;;;;;;;;;5014589;28;20061;-86
2021/12/12 10:28:24;;;;;;;45.80;20.85;;;;;;;;;;5014787;28;20029;-86
2021/12/12 10:30:55;;;;;;;46.13;22.85;;;;;;;;;;5032411;28;20022;-86
2021/12/12 10:33:20;;;;;;;44.22;21.67;;;;;;;;;;5026972;28;20021;-87
2021/12/12 10:35:58;;;;;;;48.28;23.88;;;;;;;;;;5030744;28;20557;-86
2021/12/12 10:38:37;;;;;;;51.13;25.13;;;;;;;;;;5012837;28;20033;-87
2021/12/12 10:41:08;;;;;;;36.15;21.05;;;;;;;;;;5030974;28;20037;-86
2021/12/12 10:43:35;;;;;;;40.97;22.70;;;;;;;;;;5012701;28;20060;-86
2021/12/12 10:46:10;;;;;;;42.60;22.30;;;;;;;;;;5013074;28;20136;-86
2021/12/12 10:48:45;;;;;;;34.22;19.30;;;;;;;;;;5011543;28;20091;-86
2021/12/12 10:51:13;;;;;;;43.50;21.88;;;;;;;;;;5019933;28;20580;-86
2021/12/12 10:53:42;;;;;;;44.40;21.73;;;;;;;;;;5031982;28;20082;-87
2021/12/12 10:56:16;;;;;;;36.42;17.85;;;;;;;;;;5033467;28;20079;-87
2021/12/12 10:59:01;;;;;;;34.50;18.67;;;;;;;;;;5029793;28;20029;-87
2021/12/12 11:01:47;;;;;;;41.22;19.67;;;;;;;;;;5011952;28;20037;-87
2021/12/12 11:04:15;;;;;;;33.42;17.98;;;;;;;;;;5011195;28;20051;-86
2021/12/12 11:06:43;;;;;;;36.40;18.50;;;;;;;;;;5029473;28;20060;-86
2021/12/12 11:09:18;;;;;;;25.58;15.27;;;;;;;;;;5029718;28;20025;-87
2021/12/12 11:11:49;;;;;;;27.30;16.52;;;;;;;;;;5011372;28;20482;-87
2021/12/12 11:14:14;;;;;;;30.27;16.75;;;;;;;;;;5011375;28;20116;-87
2021/12/12 11:16:39;;;;;;;22.98;16.00;;;;;;;;;;5011425;28;20144;-87
2021/12/12 11:19:09;;;;;;;24.98;15.85;;;;;;;;;;5011609;28;20449;-87
2021/12/12 11:21:36;;;;;;;29.85;16.30;;;;;;;;;;5011403;28;20045;-87
2021/12/12 11:24:11;;;;;;;27.98;16.40;;;;;;;;;;5011658;28;20028;-87
2021/12/12 11:26:40;;;;;;;20.95;14.68;;;;;;;;;;5013974;28;20025;-87
2021/12/12 11:29:11;;;;;;;23.17;14.65;;;;;;;;;;5011633;28;20037;-87
2021/12/12 11:31:42;;;;;;;31.17;17.15;;;;;;;;;;5011812;28;20470;-87
2021/12/12 11:34:08;;;;;;;31.50;17.77;;;;;;;;;;5011129;28;20026;-87
2021/12/12 11:36:37;;;;;;;29.45;16.63;;;;;;;;;;5029260;28;20382;-87
2021/12/12 11:39:06;;;;;;;30.42;17.38;;;;;;;;;;5011268;28;20029;-87
2021/12/12 11:41:47;;;;;;;32.35;17.05;;;;;;;;;;5028799;28;20385;-86
2021/12/12 11:44:20;;;;;;;36.42;18.13;;;;;;;;;;5029074;28;20129;-87
2021/12/12 11:47:04;;;;;;;32.83;17.25;;;;;;;;;;5010974;28;20404;-87
2021/12/12 11:49:31;;;;;;;25.13;14.35;;;;;;;;;;5030913;28;20040;-87
2021/12/12 11:52:03;;;;;;;26.27;14.73;;;;;;;;;;5028792;28;20061;-87
2021/12/12 11:54:31;;;;;;;27.38;14.57;;;;;;;;;;5010647;28;20013;-87
2021/12/12 11:57:04;;;;;;;28.42;15.95;;;;;;;;;;5011208;28;20025;-87
2021/12/12 11:59:44;;;;;;;28.23;14.80;;;;;;;;;;5029227;28;20017;-87
2021/12/12 12:02:22;;;;;;;26.33;15.27;;;;;;;;;;5029242;28;20033;-87
2021/12/12 12:04:59;;;;;;;27.75;16.10;;;;;;;;;;5011261;28;20465;-87
2021/12/12 12:07:39;;;;;;;28.73;16.08;;;;;;;;;;5010838;28;20026;-87
2021/12/12 12:10:10;;;;;;;26.13;15.02;;;;;;;;;;5010918;28;20037;-87
2021/12/12 12:12:42;;;;;;;33.72;15.98;;;;;;;;;;5012905;28;20811;-87
2021/12/12 12:15:13;;;;;;;31.45;16.08;;;;;;;;;;5010000;28;20083;-87
2021/12/12 12:17:48;;;;;;;24.52;13.27;;;;;;;;;;5010752;28;20441;-87
2021/12/12 12:20:32;;;;;;;30.60;15.52;;;;;;;;;;5028764;28;20049;-87
2021/12/12 12:23:00;;;;;;;27.70;15.40;;;;;;;;;;5028651;28;20465;-87
2021/12/12 12:25:25;;;;;;;33.70;15.60;;;;;;;;;;5012674;28;20025;-86
2021/12/12 12:27:58;;;;;;;28.38;14.68;;;;;;;;;;5010985;28;20565;-86
2021/12/12 12:30:42;;;;;;;27.90;14.65;;;;;;;;;;5011562;28;20029;-87
2021/12/12 12:33:31;;;;;;;27.30;14.50;;;;;;;;;;5010670;28;20036;-87
2021/12/12 12:36:15;;;;;;;30.77;14.95;;;;;;;;;;4965140;28;20130;-87
2021/12/12 12:38:59;;;;;;;35.05;15.57;;;;;;;;;;5022741;28;20156;-87
2021/12/12 12:41:43;;;;;;;24.80;13.85;;;;;;;;;;5028865;28;20035;-87
2021/12/12 12:44:08;;;;;;;25.08;14.80;;;;;;;;;;5028374;28;20032;-87
2021/12/12 12:46:52;;;;;;;33.47;14.80;;;;;;;;;;5008737;28;20026;-87
2021/12/12 12:49:37;;;;;;;30.45;15.93;;;;;;;;;;5000689;28;20021;-87
2021/12/12 12:52:21;;;;;;;31.23;16.05;;;;;;;;;;5011877;28;20125;-87
2021/12/12 12:54:47;;;;;;;36.17;16.50;;;;;;;;;;5024788;28;20796;-87
2021/12/12 12:57:20;;;;;;;40.47;17.75;;;;;;;;;;5011899;28;20040;-87
2021/12/12 12:59:50;;;;;;;34.63;16.30;;;;;;;;;;5011149;28;20033;-89
2021/12/12 13:02:15;;;;;;;24.88;15.27;;;;;;;;;;5029378;28;20068;-86
2021/12/12 13:05:01;;;;;;;33.60;15.45;;;;;;;;;;5029223;28;20013;-86
2021/12/12 13:07:45;;;;;;;32.65;16.92;;;;;;;;;;5014365;28;20025;-87
2021/12/12 13:10:18;;;;;;;39.95;19.77;;;;;;;;;;5031963;28;20108;-85
2021/12/12 13:12:52;;;;;;;45.17;18.63;;;;;;;;;;5034515;28;20021;-86
2021/12/12 13:15:24;;;;;;;37.85;18.40;;;;;;;;;;5035540;28;20032;-91
2021/12/12 13:17:53;;;;;;;50.38;18.85;;;;;;;;;;5019692;28;20405;-90
2021/12/12 13:20:48;;;;;;;52.00;19.02;;;;;;;;;;5018769;28;20053;-88
2021/12/12 13:23:38;;;;;;;81.07;25.67;;;;;;;;;;4927863;28;20131;-90
2021/12/12 13:26:09;;;;;;;72.47;23.60;;;;;;;;;;5002377;28;20034;-90
2021/12/12 13:28:47;;;;;;;77.13;24.50;;;;;;;;;;5011977;28;20018;-90
2021/12/12 13:31:20;;;;;;;93.28;26.25;;;;;;;;;;5004918;28;20045;-90
2021/12/12 13:34:06;;;;;;;72.03;23.25;;;;;;;;;;5016004;28;20576;-91
2021/12/12 13:36:50;;;;;;;114.45;28.35;;;;;;;;;;5012152;28;20025;-90
2021/12/12 13:39:21;;;;;;;118.55;29.60;;;;;;;;;;4994825;28;20042;-91
2021/12/12 13:41:55;;;;;;;100.82;27.83;;;;;;;;;;5009783;28;20029;-90
2021/12/12 13:44:49;;;;;;;118.70;30.58;;;;;;;;;;4997836;28;20092;-91
2021/12/12 13:47:28;;;;;;;120.28;29.67;;;;;;;;;;5004803;28;20044;-90
2021/12/12 13:49:59;;;;;;;112.28;28.95;;;;;;;;;;5015676;28;20113;-90
2021/12/12 13:52:34;;;;;;;99.35;29.67;;;;;;;;;;5022206;28;20021;-90
2021/12/12 13:55:00;;;;;;;115.72;29.98;;;;;;;;;;5018109;28;20065;-90
2021/12/12 13:57:45;;;;;;;123.20;28.90;;;;;;;;;;5016208;28;20052;-91
2021/12/12 14:00:13;;;;;;;144.07;33.55;;;;;;;;;;4999420;28;20022;-91
2021/12/12 14:02:41;;;;;;;155.75;34.53;;;;;;;;;;5015742;28;20026;-91
2021/12/12 14:05:16;;;;;;;137.52;33.75;;;;;;;;;;5007354;28;20018;-91
2021/12/12 14:07:47;;;;;;;125.38;31.65;;;;;;;;;;4996907;28;20018;-90
2021/12/12 14:10:15;;;;;;;126.68;32.30;;;;;;;;;;5012430;28;20029;-91
2021/12/12 14:12:43;;;;;;;127.50;31.98;;;;;;;;;;5014136;28;20165;-91
2021/12/12 14:15:13;;;;;;;135.52;34.78;;;;;;;;;;4995498;28;20102;-90
2021/12/12 14:17:47;;;;;;;118.07;31.45;;;;;;;;;;5007861;28;20025;-90
2021/12/12 14:20:29;;;;;;;113.63;32.47;;;;;;;;;;5016281;28;20073;-90
2021/12/12 14:22:54;;;;;;;;;;;;;;;;;;5010877;28;20377;-90
2021/12/12 14:25:20;;;;;;;131.82;34.33;;;;;;;;;;5014445;28;19909;-87
2021/12/12 14:27:47;;;;;;;156.55;33.88;;;;;;;;;;5031332;28;20037;-88
2021/12/12 14:30:14;;;;;;;138.68;35.55;;;;;;;;;;5013588;28;20118;-87
2021/12/12 14:32:42;;;;;;;146.05;34.45;;;;;;;;;;5030806;28;20033;-88
2021/12/12 14:35:13;;;;;;;135.15;36.80;;;;;;;;;;5030897;28;20017;-87
2021/12/12 14:37:39;;;;;;;150.23;37.33;;;;;;;;;;5030512;28;20071;-88
2021/12/12 14:40:10;;;;;;;123.60;35.10;;;;;;;;;;5014887;28;20480;-87
2021/12/12 14:42:38;;;;;;;139.85;36.35;;;;;;;;;;5013024;28;20127;-88
2021/12/12 14:45:03;;;;;;;144.15;38.80;;;;;;;;;;5030216;28;20380;-88